Time;durP1;ratioP1;P1;durP2;ratioP2;P2;SDS_P1;SDS_P2;PMS_P1;PMS_P2;Temp;Humidity;BMP_temperature;BMP_pressure;BME280_temperature;BME280_humidity;BME280_pressure;Samples;Min_cycle;Max_cycle;Signal;HPM_P1;HPM_P2
2022/03/14 00:00:28;;;;;;;8.05;4.82;;;13.70;44.00;;;;;;2298163;54;21047;-64
2022/03/14 00:02:55;;;;;;;5.68;3.75;;;13.70;44.60;;;;;;2300283;54;20916;-64
2022/03/14 00:05:24;;;;;;;5.18;3.10;;;13.70;44.50;;;;;;2298299;54;21018;-64
2022/03/14 00:07:52;;;;;;;4.18;1.92;;;13.70;45.00;;;;;;2298667;54;20955;-65
2022/03/14 00:10:21;;;;;;;3.85;1.77;;;13.70;45.20;;;;;;2290468;54;21024;-64
2022/03/14 00:12:56;;;;;;;4.45;1.45;;;13.80;45.30;;;;;;2295000;54;21003;-64
2022/03/14 00:15:33;;;;;;;2.28;1.05;;;13.80;45.50;;;;;;2296074;54;20970;-64
2022/03/14 00:18:04;;;;;;;2.28;0.88;;;13.70;45.30;;;;;;2306678;54;21091;-64
2022/03/14 00:20:31;;;;;;;1.77;0.60;;;13.70;45.20;;;;;;2299588;54;20904;-64
2022/03/14 00:23:01;;;;;;;1.77;0.70;;;13.70;45.30;;;;;;2295967;54;21148;-64
2022/03/14 00:25:34;;;;;;;1.45;0.55;;;13.80;45.50;;;;;;2295146;54;20964;-65
2022/03/14 00:28:01;;;;;;;1.67;0.60;;;13.70;45.40;;;;;;2300998;55;21040;-64
2022/03/14 00:30:33;;;;;;;1.50;0.60;;;13.70;45.40;;;;;;2299160;54;20943;-65
2022/03/14 00:33:05;;;;;;;1.48;0.60;;;13.70;45.50;;;;;;2346081;54;21027;-64
2022/03/14 00:35:35;;;;;;;1.60;0.50;;;13.70;45.60;;;;;;2282679;54;21574;-64
2022/03/14 00:38:10;;;;;;;1.30;0.60;;;13.70;45.80;;;;;;2298325;54;20976;-64
2022/03/14 00:40:40;;;;;;;1.40;0.60;;;13.70;45.80;;;;;;2298470;54;20965;-64
2022/03/14 00:43:28;;;;;;;1.15;0.40;;;13.60;45.80;;;;;;2307173;54;20999;-64
2022/03/14 00:46:07;;;;;;;1.50;0.60;;;13.60;46.50;;;;;;2339276;53;21823;-64
2022/03/14 00:48:36;;;;;;;1.73;0.70;;;13.60;45.90;;;;;;2283208;55;20981;-64
2022/03/14 00:51:07;;;;;;;3.40;1.58;;;13.60;46.20;;;;;;2321507;55;20963;-63
2022/03/14 00:54:10;;;;;;;4.62;2.50;;;13.60;46.40;;;;;;2314239;54;21006;-64
2022/03/14 00:59:01;;;;;;;4.90;2.72;;;13.60;47.50;;;;;;2311680;54;20959;-64
2022/03/14 01:02:16;;;;;;;6.62;3.03;;;13.50;47.00;;;;;;2298509;54;21031;-64
2022/03/14 01:04:46;;;;;;;10.02;3.40;;;13.40;46.80;;;;;;2295723;54;20956;-64
2022/03/14 01:07:16;;;;;;;5.55;3.20;;;13.40;47.30;;;;;;2305307;54;20974;-64
2022/03/14 01:09:42;;;;;;;5.50;3.30;;;13.30;47.10;;;;;;2304530;54;21067;-63
2022/03/14 01:12:12;;;;;;;6.62;3.53;;;13.20;47.40;;;;;;2300845;54;21449;-63
2022/03/14 01:15:01;;;;;;;5.30;2.92;;;13.20;47.60;;;;;;2302824;54;21504;-64
2022/03/14 01:17:34;;;;;;;5.28;3.00;;;13.10;47.60;;;;;;2309992;54;21069;-64
2022/03/14 01:20:13;;;;;;;6.03;3.33;;;13.10;47.70;;;;;;2322732;54;20940;-64
2022/03/14 01:22:42;;;;;;;5.45;2.85;;;13.00;47.70;;;;;;2297794;54;20952;-64
2022/03/14 01:31:40;;;;;;;4.78;2.70;;;13.00;47.70;;;;;;2337480;54;20944;-64
2022/03/14 01:34:11;;;;;;;2.47;1.12;;;12.90;48.20;;;;;;2372539;55;20976;-64
2022/03/14 01:36:38;;;;;;;2.10;0.82;;;12.80;47.90;;;;;;2299201;55;21020;-64
2022/03/14 01:39:07;;;;;;;1.90;0.80;;;12.70;48.70;;;;;;2288122;55;21039;-64
2022/03/14 01:41:55;;;;;;;;;;;;;;;;;;;;;
2022/03/14 01:44:53;;;;;;;;;;;;;;;;;;;;;
2022/03/14 01:47:36;;;;;;;1.08;0.40;;;12.50;49.10;;;;;;2298659;54;20952;-65
2022/03/14 01:50:24;;;;;;;1.10;0.50;;;12.40;48.80;;;;;;2346187;54;21435;-64
2022/03/14 01:52:55;;;;;;;1.40;0.50;;;12.30;49.00;;;;;;2298268;54;20940;-64
2022/03/14 01:55:30;;;;;;;2.15;0.70;;;12.30;49.10;;;;;;2315052;54;21122;-64
2022/03/14 01:58:03;;;;;;;0.68;0.40;;;12.20;49.60;;;;;;2297692;54;20964;-64
2022/03/14 02:00:33;;;;;;;0.75;0.40;;;12.20;49.60;;;;;;2299273;54;20928;-64
2022/03/14 02:03:11;;;;;;;1.67;0.60;;;12.10;49.50;;;;;;2278775;55;21115;-64
2022/03/14 02:12:08;;;;;;;1.92;0.50;;;12.10;49.80;;;;;;2298419;54;21014;-64
2022/03/14 02:14:41;;;;;;;1.00;0.50;;;12.00;49.10;;;;;;2295824;54;21052;-65
2022/03/14 02:17:15;;;;;;;2.00;0.75;;;12.00;49.20;;;;;;2295513;54;21378;-64
2022/03/14 02:19:52;;;;;;;0.90;0.40;;;11.90;49.70;;;;;;2293085;55;21000;-64
2022/03/14 02:23:08;;;;;;;0.57;0.40;;;11.90;49.80;;;;;;2393642;54;20981;-64
2022/03/14 02:25:57;;;;;;;1.25;0.45;;;11.90;50.50;;;;;;2289034;55;20948;-64
2022/03/14 02:28:26;;;;;;;1.45;0.73;;;11.90;50.20;;;;;;2298298;54;20976;-64
2022/03/14 02:30:57;;;;;;;1.40;0.60;;;11.90;50.10;;;;;;2298885;55;20996;-65
2022/03/14 02:33:28;;;;;;;1.25;0.60;;;11.80;50.20;;;;;;2290838;54;20972;-64
2022/03/14 02:37:29;;;;;;;0.40;0.30;;;11.80;50.40;;;;;;2283917;54;20952;-64
2022/03/14 02:39:56;;;;;;;1.02;0.40;;;11.80;50.30;;;;;;2297421;54;21008;-65
2022/03/14 02:42:29;;;;;;;1.65;0.50;;;11.80;50.60;;;;;;2290590;54;20962;-65
2022/03/14 02:44:56;;;;;;;1.45;0.60;;;11.80;50.80;;;;;;2299047;54;21143;-64
2022/03/14 02:47:32;;;;;;;1.52;0.52;;;11.80;50.70;;;;;;2305613;54;21522;-65
2022/03/14 02:50:00;;;;;;;0.88;0.40;;;11.70;50.70;;;;;;2322903;54;20995;-64
2022/03/14 02:52:27;;;;;;;1.35;0.55;;;11.70;50.70;;;;;;2318204;54;21033;-65
2022/03/14 02:54:54;;;;;;;1.05;0.50;;;11.70;50.70;;;;;;2292815;54;20996;-64
2022/03/14 02:57:51;;;;;;;1.05;0.47;;;11.80;50.80;;;;;;2284809;55;21062;-64
2022/03/14 03:00:19;;;;;;;0.95;0.40;;;11.70;51.00;;;;;;2277227;55;20963;-64
2022/03/14 03:03:25;;;;;;;0.98;0.50;;;11.70;50.50;;;;;;2311097;54;20943;-64
2022/03/14 03:05:56;;;;;;;1.37;0.50;;;11.70;50.80;;;;;;2289047;54;20946;-65
2022/03/14 03:09:04;;;;;;;1.50;0.47;;;11.80;50.60;;;;;;2300632;54;22129;-64
2022/03/14 03:11:32;;;;;;;1.30;0.50;;;11.70;50.80;;;;;;2302137;54;21063;-64
2022/03/14 03:14:10;;;;;;;;;;;;;;;;;;;;;
2022/03/14 03:16:42;;;;;;;1.17;0.50;;;11.70;50.70;;;;;;2301863;54;20996;-64
2022/03/14 03:19:18;;;;;;;0.73;0.30;;;11.70;50.70;;;;;;2361841;53;21935;-64
2022/03/14 03:22:02;;;;;;;0.88;0.40;;;11.70;50.90;;;;;;2300339;55;21047;-64
2022/03/14 03:24:29;;;;;;;0.75;0.40;;;11.70;50.70;;;;;;2298182;55;21484;-64
2022/03/14 03:26:56;;;;;;;1.27;0.50;;;11.70;50.50;;;;;;2309356;54;20986;-64
2022/03/14 03:29:35;;;;;;;1.05;0.37;;;11.60;50.50;;;;;;2294226;54;21037;-65
2022/03/14 03:32:12;;;;;;;0.90;0.40;;;11.70;51.00;;;;;;2287646;54;21044;-65
2022/03/14 03:34:50;;;;;;;3.70;0.37;;;11.60;50.90;;;;;;2383544;54;21056;-65
2022/03/14 03:37:19;;;;;;;0.85;0.40;;;11.60;50.70;;;;;;2297079;54;21417;-64
2022/03/14 03:39:58;;;;;;;1.10;0.40;;;11.60;50.60;;;;;;2292573;55;21101;-64
2022/03/14 03:42:34;;;;;;;0.65;0.30;;;11.60;50.80;;;;;;2282806;54;21053;-64
2022/03/14 03:46:10;;;;;;;0.77;0.40;;;11.60;50.70;;;;;;2296958;54;20983;-64
2022/03/14 03:49:02;;;;;;;0.85;0.40;;;11.60;50.70;;;;;;2294906;55;21754;-64
2022/03/14 03:52:11;;;;;;;;;;;;;;;;;;;;;
2022/03/14 03:54:53;;;;;;;0.70;0.32;;;11.60;50.70;;;;;;2309262;54;21016;-65
2022/03/14 03:57:48;;;;;;;0.90;0.30;;;11.60;50.50;;;;;;2299317;55;20964;-64
2022/03/14 04:00:15;;;;;;;0.77;0.30;;;11.60;50.90;;;;;;2374930;54;20973;-65
2022/03/14 04:02:45;;;;;;;1.10;0.47;;;11.50;50.50;;;;;;2303272;54;20984;-64
2022/03/14 04:05:52;;;;;;;0.80;0.40;;;11.50;50.70;;;;;;2299270;54;20979;-64
2022/03/14 04:08:19;;;;;;;0.85;0.50;;;11.50;50.70;;;;;;2298254;54;20995;-65
2022/03/14 04:10:54;;;;;;;0.93;0.40;;;11.50;50.70;;;;;;2335818;53;20968;-65
2022/03/14 04:13:31;;;;;;;1.20;0.50;;;11.50;50.70;;;;;;2299211;54;20964;-64
2022/03/14 04:16:05;;;;;;;1.00;0.40;;;11.50;50.90;;;;;;2298665;54;20951;-65
2022/03/14 04:18:35;;;;;;;1.40;0.43;;;11.50;50.90;;;;;;2298194;54;20979;-64
2022/03/14 04:21:07;;;;;;;1.00;0.40;;;11.50;51.00;;;;;;2298989;54;20984;-64
2022/03/14 04:23:56;;;;;;;0.88;0.30;;;11.50;51.00;;;;;;2299679;54;21887;-64
2022/03/14 04:26:23;;;;;;;0.88;0.32;;;11.40;51.30;;;;;;2292613;55;21001;-64
2022/03/14 04:32:44;;;;;;;0.73;0.40;;;11.40;51.40;;;;;;2369282;54;21027;-64
2022/03/14 04:35:15;;;;;;;0.93;0.40;;;11.40;51.30;;;;;;2298578;55;20971;-64
2022/03/14 04:38:16;;;;;;;0.70;0.40;;;11.40;51.10;;;;;;2292688;54;20994;-64
2022/03/14 04:40:53;;;;;;;0.80;0.50;;;11.30;51.20;;;;;;2280611;56;21065;-64
2022/03/14 04:47:25;;;;;;;1.02;0.40;;;11.30;51.30;;;;;;2248138;56;20977;-64
2022/03/14 04:50:03;;;;;;;0.65;0.22;;;11.30;51.10;;;;;;2241542;56;21796;-64
2022/03/14 04:52:45;;;;;;;0.95;0.40;;;11.30;50.80;;;;;;2280568;55;20963;-64
2022/03/14 04:56:12;;;;;;;0.90;0.40;;;11.30;51.20;;;;;;2290376;54;21411;-64
2022/03/14 04:58:51;;;;;;;0.88;0.30;;;11.30;51.90;;;;;;2292948;54;20944;-64
2022/03/14 05:01:40;;;;;;;1.30;0.40;;;11.20;50.70;;;;;;2370350;54;20948;-64
2022/03/14 05:04:15;;;;;;;1.45;0.50;;;11.20;50.90;;;;;;2301506;54;21782;-65
2022/03/14 05:06:52;;;;;;;1.62;0.40;;;11.20;50.80;;;;;;2362707;54;20940;-64
2022/03/14 05:10:06;;;;;;;1.08;0.40;;;11.20;50.80;;;;;;2302715;54;21039;-65
2022/03/14 05:13:57;;;;;;;1.17;0.40;;;11.20;51.30;;;;;;2297877;54;20986;-65
2022/03/14 05:16:47;;;;;;;0.62;0.30;;;11.20;51.30;;;;;;2315412;54;20956;-65
2022/03/14 05:19:15;;;;;;;0.60;0.35;;;11.20;50.90;;;;;;2316325;53;20984;-64
2022/03/14 05:21:43;;;;;;;1.20;0.35;;;11.20;50.70;;;;;;2332942;54;20904;-64
2022/03/14 05:24:10;;;;;;;1.23;0.40;;;11.10;50.70;;;;;;2302894;54;21833;-64
2022/03/14 05:26:37;;;;;;;1.55;0.62;;;11.10;50.70;;;;;;2310017;54;20984;-64
2022/03/14 05:29:12;;;;;;;1.87;0.40;;;11.10;50.70;;;;;;2288323;55;20960;-64
2022/03/14 05:31:49;;;;;;;4.03;0.40;;;11.10;50.80;;;;;;2313547;54;20946;-65
2022/03/14 05:34:27;;;;;;;1.17;0.32;;;11.10;50.60;;;;;;2299837;54;20955;-64
2022/03/14 05:52:52;;;;;;;;;;;;;;;;;;;;;
2022/03/14 05:58:43;;;;;;;0.73;0.30;;;11.00;50.20;;;;;;2326164;55;20960;-64
2022/03/14 06:02:14;;;;;;;1.42;0.40;;;10.90;50.20;;;;;;2308461;54;21371;-64
2022/03/14 06:05:33;;;;;;;1.62;0.35;;;10.90;50.30;;;;;;2329085;54;21022;-65
2022/03/14 06:09:09;;;;;;;0.90;0.65;;;10.90;50.70;;;;;;2298004;54;21009;-65
2022/03/14 06:11:55;;;;;;;1.45;0.40;;;11.00;50.50;;;;;;2303051;54;21114;-64
2022/03/14 06:14:58;;;;;;;0.85;0.22;;;11.00;50.60;;;;;;2302926;54;21896;-65
2022/03/14 06:17:28;;;;;;;1.73;0.40;;;11.00;50.60;;;;;;2297816;54;20947;-65
2022/03/14 06:20:12;;;;;;;0.85;0.50;;;11.00;50.50;;;;;;2292718;55;21029;-64
2022/03/14 06:22:40;;;;;;;1.75;0.40;;;11.10;50.80;;;;;;2279014;54;21029;-64
2022/03/14 06:25:18;;;;;;;2.20;0.70;;;11.10;50.70;;;;;;2309479;54;21732;-64
2022/03/14 06:28:06;;;;;;;3.40;0.50;;;11.10;50.70;;;;;;2298190;54;21022;-64
2022/03/14 06:30:34;;;;;;;1.95;0.62;;;11.20;50.70;;;;;;2335002;53;20943;-64
2022/03/14 06:33:18;;;;;;;2.15;0.60;;;11.20;50.70;;;;;;2296427;54;20960;-64
2022/03/14 06:35:45;;;;;;;1.30;0.50;;;11.20;50.80;;;;;;2325004;54;20991;-65
2022/03/14 06:41:54;;;;;;;1.45;0.50;;;11.20;50.90;;;;;;2310564;54;20969;-65
2022/03/14 06:44:29;;;;;;;2.00;0.47;;;11.30;50.70;;;;;;2307667;54;20958;-64
2022/03/14 06:47:15;;;;;;;2.80;0.70;;;11.30;50.60;;;;;;2302348;54;21025;-64
2022/03/14 06:49:47;;;;;;;2.35;0.62;;;11.30;50.80;;;;;;2298565;55;21023;-65
2022/03/14 06:52:43;;;;;;;2.45;0.60;;;11.30;50.70;;;;;;2294347;54;20970;-64
2022/03/14 06:55:10;;;;;;;2.17;0.57;;;11.40;51.00;;;;;;2351988;54;20980;-64
2022/03/14 06:57:55;;;;;;;2.30;0.68;;;11.40;50.70;;;;;;2288388;54;21020;-65
2022/03/14 07:00:22;;;;;;;2.50;0.70;;;11.40;50.70;;;;;;2299733;54;21024;-64
2022/03/14 07:03:34;;;;;;;3.78;0.70;;;11.50;50.70;;;;;;2297058;54;20951;-65
2022/03/14 07:06:20;;;;;;;1.95;0.50;;;11.50;50.80;;;;;;2294393;55;21864;-65
2022/03/14 07:08:59;;;;;;;2.22;0.60;;;11.60;50.70;;;;;;2282874;54;21022;-65
2022/03/14 07:11:51;;;;;;;2.45;0.62;;;11.60;50.70;;;;;;2314814;54;20986;-64
2022/03/14 07:14:33;;;;;;;1.98;0.50;;;11.70;50.90;;;;;;2293472;55;21813;-65
2022/03/14 07:17:13;;;;;;;2.40;0.68;;;11.70;50.70;;;;;;2299529;54;20968;-64
2022/03/14 07:19:45;;;;;;;2.25;0.65;;;11.70;50.60;;;;;;2299378;54;20988;-65
2022/03/14 07:22:19;;;;;;;2.08;0.73;;;11.70;50.40;;;;;;2297660;54;20967;-65
2022/03/14 07:24:50;;;;;;;1.73;0.40;;;11.80;50.50;;;;;;2316536;54;21504;-64
2022/03/14 07:27:16;;;;;;;3.03;0.85;;;11.80;50.50;;;;;;2285327;54;20964;-65
2022/03/14 07:29:52;;;;;;;3.78;0.70;;;11.80;50.40;;;;;;2297112;55;20983;-65
2022/03/14 07:32:27;;;;;;;2.80;0.62;;;11.90;50.50;;;;;;2297125;54;21007;-65
2022/03/14 07:34:54;;;;;;;2.28;0.80;;;11.90;50.50;;;;;;2295938;54;21028;-64
2022/03/14 07:37:35;;;;;;;2.70;0.90;;;12.00;50.50;;;;;;2296141;54;20960;-65
2022/03/14 07:43:20;;;;;;;4.18;1.05;;;12.00;50.40;;;;;;2337531;53;20980;-65
2022/03/14 07:46:24;;;;;;;3.35;0.80;;;12.10;50.40;;;;;;2290014;54;21393;-64
2022/03/14 07:48:51;;;;;;;2.03;0.70;;;12.20;50.30;;;;;;2297385;54;20962;-65
2022/03/14 07:51:36;;;;;;;5.07;0.77;;;12.20;50.10;;;;;;2325131;54;21040;-65
2022/03/14 07:54:03;;;;;;;3.05;0.60;;;12.20;50.10;;;;;;2359362;54;21050;-65
2022/03/14 07:57:19;;;;;;;4.18;0.77;;;12.10;50.00;;;;;;2296599;54;20988;-65
2022/03/14 07:59:46;;;;;;;3.17;0.80;;;12.20;50.20;;;;;;2335374;54;20980;-65
2022/03/14 08:02:16;;;;;;;2.58;0.68;;;12.20;50.00;;;;;;2295666;54;20987;-65
2022/03/14 08:04:45;;;;;;;2.62;0.70;;;12.20;50.00;;;;;;2298509;55;20983;-65
2022/03/14 08:07:13;;;;;;;3.90;0.68;;;12.30;50.10;;;;;;2303843;55;21030;-65
2022/03/14 08:09:40;;;;;;;4.55;0.73;;;12.30;50.10;;;;;;2289989;54;20999;-65
2022/03/14 08:12:12;;;;;;;2.75;0.70;;;12.30;50.10;;;;;;2289238;55;21468;-65
2022/03/14 08:14:39;;;;;;;4.47;0.80;;;12.40;50.10;;;;;;2312580;54;21014;-65
2022/03/14 08:17:09;;;;;;;2.42;0.70;;;12.40;50.10;;;;;;2314179;54;21839;-65
2022/03/14 08:19:41;;;;;;;1.90;0.60;;;12.40;50.10;;;;;;2308079;54;21065;-65
2022/03/14 08:22:09;;;;;;;2.30;0.80;;;12.50;50.30;;;;;;2299610;54;21075;-65
2022/03/14 08:24:36;;;;;;;3.87;0.90;;;12.60;50.30;;;;;;2296310;54;21023;-65
2022/03/14 08:28:47;;;;;;;3.12;0.60;;;12.60;50.30;;;;;;2296891;54;20975;-65
2022/03/14 08:38:07;;;;;;;4.03;0.77;;;12.80;50.60;;;;;;2301356;55;20972;-66
2022/03/14 08:40:36;;;;;;;2.33;0.70;;;13.30;50.40;;;;;;2293432;54;20995;-65
2022/03/14 08:46:39;;;;;;;2.42;0.70;;;13.50;50.20;;;;;;2296449;54;21079;-67
2022/03/14 08:49:06;;;;;;;4.00;0.90;;;13.70;50.10;;;;;;2296392;54;20964;-67
2022/03/14 08:52:26;;;;;;;3.37;0.80;;;13.80;50.00;;;;;;2288285;54;21044;-67
2022/03/14 08:55:03;;;;;;;3.72;0.90;;;14.00;49.70;;;;;;2298690;54;21032;-66
2022/03/14 09:01:24;;;;;;;2.80;0.75;;;14.30;49.00;;;;;;2326236;54;21007;-65
2022/03/14 09:03:51;;;;;;;2.78;0.80;;;14.40;49.00;;;;;;2271701;55;20961;-67
2022/03/14 09:10:49;;;;;;;4.22;0.65;;;14.60;49.00;;;;;;2328442;54;21011;-66
2022/03/14 09:13:29;;;;;;;1.67;0.68;;;14.90;48.60;;;;;;2297569;55;20940;-66
2022/03/14 09:15:56;;;;;;;3.35;0.70;;;15.00;49.00;;;;;;2296864;54;21007;-65
2022/03/14 09:18:29;;;;;;;3.00;0.60;;;15.20;49.00;;;;;;2307537;54;20988;-67
2022/03/14 09:20:59;;;;;;;2.58;0.73;;;15.40;49.40;;;;;;2310671;54;21021;-66
2022/03/14 09:23:34;;;;;;;3.50;0.60;;;15.60;49.40;;;;;;2296501;54;21008;-66
2022/03/14 09:26:24;;;;;;;3.40;0.82;;;15.90;49.30;;;;;;2293407;55;21228;-65
2022/03/14 09:28:53;;;;;;;3.50;0.90;;;16.20;49.10;;;;;;2263582;55;21013;-66
2022/03/14 09:31:24;;;;;;;2.83;0.80;;;16.60;49.70;;;;;;2288643;54;20963;-66
2022/03/14 09:33:51;;;;;;;3.95;1.00;;;16.90;49.90;;;;;;2291233;54;20984;-66
2022/03/14 09:40:10;;;;;;;3.45;0.88;;;17.80;48.50;;;;;;2244629;56;22262;-65
2022/03/14 09:42:41;;;;;;;3.70;0.70;;;18.20;48.90;;;;;;2293029;54;21587;-66
2022/03/14 09:45:09;;;;;;;2.67;0.70;;;18.50;48.10;;;;;;2295880;54;20984;-66
2022/03/14 09:47:40;;;;;;;2.50;0.65;;;18.80;46.80;;;;;;2286537;54;21023;-68
2022/03/14 09:50:38;;;;;;;3.05;0.70;;;19.00;46.00;;;;;;2294255;54;21468;-66
2022/03/14 09:56:01;;;;;;;2.67;0.65;;;19.20;45.70;;;;;;2295929;54;21771;-68
2022/03/14 09:58:31;;;;;;;3.22;0.90;;;19.20;45.00;;;;;;2296271;54;21521;-66
2022/03/14 10:01:37;;;;;;;3.47;0.80;;;19.20;44.80;;;;;;2302350;54;20974;-67
2022/03/14 10:07:15;;;;;;;3.45;0.93;;;19.30;43.90;;;;;;2296795;54;21020;-65
2022/03/14 10:09:51;;;;;;;4.00;1.10;;;19.40;43.90;;;;;;2296962;54;20964;-67
2022/03/14 10:12:20;;;;;;;4.20;0.50;;;19.50;44.50;;;;;;2310084;54;21055;-66
2022/03/14 10:17:35;;;;;;;1.62;0.55;;;19.90;44.30;;;;;;2294457;54;21496;-66
2022/03/14 10:20:04;;;;;;;2.12;0.60;;;20.20;43.90;;;;;;2348347;54;20998;-66
2022/03/14 10:22:35;;;;;;;3.33;0.90;;;20.30;43.70;;;;;;2291340;54;20992;-65
2022/03/14 10:25:13;;;;;;;2.42;0.77;;;20.50;43.30;;;;;;2293477;54;20929;-68
2022/03/14 10:27:45;;;;;;;2.60;0.60;;;20.70;43.30;;;;;;2298809;54;21712;-66
2022/03/14 10:31:12;;;;;;;;;;;20.90;43.40;;;;;;2303195;54;20952;-66
2022/03/14 10:33:40;;;;;;;2.40;0.60;;;21.10;43.20;;;;;;2296358;55;20083;-68
2022/03/14 10:36:07;;;;;;;1.42;0.40;;;21.30;43.20;;;;;;2299238;54;21414;-68
2022/03/14 10:38:53;;;;;;;2.25;0.80;;;21.30;42.30;;;;;;2300087;54;21482;-65
2022/03/14 10:41:28;;;;;;;2.53;0.90;;;21.40;41.20;;;;;;2369800;54;20933;-66
2022/03/14 10:44:07;;;;;;;2.00;0.52;;;21.40;41.50;;;;;;2294045;55;20984;-66
2022/03/14 10:46:52;;;;;;;1.62;0.50;;;21.40;41.70;;;;;;2283985;55;20960;-66
2022/03/14 10:49:29;;;;;;;2.90;0.60;;;21.40;41.00;;;;;;2296468;54;20992;-66
2022/03/14 10:52:06;;;;;;;2.67;0.77;;;21.40;40.90;;;;;;2296907;54;20956;-66
2022/03/14 10:54:37;;;;;;;1.70;0.50;;;21.40;40.80;;;;;;2296241;54;20964;-66
2022/03/14 10:57:31;;;;;;;1.83;0.50;;;21.50;40.50;;;;;;2307345;54;21015;-67
2022/03/14 10:59:58;;;;;;;2.17;0.50;;;21.60;39.70;;;;;;2294990;54;21043;-66
2022/03/14 11:02:26;;;;;;;1.33;0.45;;;21.60;40.50;;;;;;2318001;54;20964;-66
2022/03/14 11:04:57;;;;;;;2.78;0.70;;;21.70;40.30;;;;;;2307992;54;21019;-66
2022/03/14 11:07:28;;;;;;;2.10;0.40;;;21.70;40.40;;;;;;2338178;54;21102;-69
2022/03/14 11:09:58;;;;;;;1.98;0.68;;;21.80;40.40;;;;;;2288295;54;21067;-68
2022/03/14 11:12:27;;;;;;;2.70;0.73;;;21.80;40.10;;;;;;2296277;54;21035;-66
2022/03/14 11:15:03;;;;;;;2.03;0.40;;;21.90;40.00;;;;;;2288202;55;20975;-66
2022/03/14 11:18:53;;;;;;;2.92;0.70;;;21.90;39.20;;;;;;2286214;54;20972;-67
2022/03/14 11:21:24;;;;;;;2.55;0.60;;;21.90;38.30;;;;;;2302597;54;21011;-68
2022/03/14 11:23:52;;;;;;;2.08;0.52;;;21.80;38.20;;;;;;2286585;54;21000;-67
2022/03/14 11:26:21;;;;;;;1.90;0.47;;;21.70;37.90;;;;;;2299763;54;21468;-68
2022/03/14 11:28:49;;;;;;;0.93;0.30;;;21.50;37.90;;;;;;2300852;54;20996;-66
2022/03/14 11:31:31;;;;;;;2.20;0.50;;;21.40;37.90;;;;;;2298914;55;21019;-67
2022/03/14 11:34:03;;;;;;;1.98;0.50;;;21.30;38.30;;;;;;2366924;54;20960;-66
2022/03/14 11:36:37;;;;;;;1.42;0.52;;;21.20;38.20;;;;;;2304616;54;20996;-67
2022/03/14 11:39:04;;;;;;;3.67;0.85;;;21.10;38.40;;;;;;2289106;55;21003;-67
2022/03/14 11:41:57;;;;;;;2.62;0.70;;;21.10;38.60;;;;;;2297371;55;21023;-67
2022/03/14 11:44:25;;;;;;;2.22;0.57;;;21.10;37.80;;;;;;2299300;54;21487;-67
2022/03/14 11:47:13;;;;;;;3.22;0.40;;;21.00;38.20;;;;;;2302273;54;20991;-67
2022/03/14 11:50:08;;;;;;;3.90;0.70;;;21.00;37.50;;;;;;2295515;54;21856;-69
2022/03/14 11:52:40;;;;;;;1.85;0.40;;;21.00;37.20;;;;;;2296230;54;20967;-66
2022/03/14 11:56:44;;;;;;;3.12;0.65;;;21.00;38.00;;;;;;2348215;53;21488;-69
2022/03/14 11:59:11;;;;;;;2.47;0.50;;;21.00;37.90;;;;;;2317390;54;21055;-67
2022/03/14 12:01:51;;;;;;;2.03;0.50;;;21.10;38.50;;;;;;2287827;54;21048;-67
2022/03/14 12:04:55;;;;;;;1.42;0.40;;;21.10;38.20;;;;;;2308777;55;21074;-67
2022/03/14 12:07:32;;;;;;;1.42;0.45;;;21.20;38.30;;;;;;2295374;54;21544;-66
2022/03/14 12:10:28;;;;;;;2.60;0.60;;;21.40;38.00;;;;;;2294289;55;20947;-67
2022/03/14 12:12:58;;;;;;;1.30;0.40;;;21.40;36.80;;;;;;2293260;54;20983;-68
2022/03/14 12:18:28;;;;;;;2.90;0.85;;;21.40;37.30;;;;;;2319069;54;20956;-67
2022/03/14 12:21:43;;;;;;;1.60;0.50;;;21.40;37.00;;;;;;2313059;54;21521;-69
2022/03/14 12:24:21;;;;;;;3.03;0.73;;;21.40;37.00;;;;;;2307236;54;21198;-67
2022/03/14 12:27:01;;;;;;;2.28;0.60;;;21.40;37.00;;;;;;2288326;54;21119;-67
2022/03/14 12:29:50;;;;;;;3.40;0.60;;;21.40;37.10;;;;;;2298754;54;21051;-67
2022/03/14 12:32:27;;;;;;;5.90;0.80;;;21.40;36.80;;;;;;2300326;54;21560;-67
2022/03/14 12:35:54;;;;;;;2.85;0.68;;;21.50;37.00;;;;;;2291169;54;20976;-66
2022/03/14 12:38:24;;;;;;;1.33;0.40;;;21.50;37.30;;;;;;2297813;55;21107;-69
2022/03/14 12:40:56;;;;;;;1.50;0.45;;;21.50;37.30;;;;;;2268615;56;21043;-66
2022/03/14 12:43:33;;;;;;;2.40;0.50;;;21.60;37.30;;;;;;2305228;54;21071;-68
2022/03/14 12:46:00;;;;;;;1.80;0.40;;;21.70;37.50;;;;;;2296129;54;20980;-67
2022/03/14 12:48:50;;;;;;;1.80;0.50;;;21.80;37.60;;;;;;2287824;54;20940;-66
2022/03/14 12:51:31;;;;;;;2.00;0.60;;;22.00;36.90;;;;;;2296447;54;21083;-67
2022/03/14 12:53:58;;;;;;;1.95;0.40;;;22.20;36.80;;;;;;2300227;54;20976;-67
2022/03/14 12:56:27;;;;;;;2.08;0.60;;;22.30;37.30;;;;;;2292927;54;21020;-69
2022/03/14 12:59:17;;;;;;;3.22;0.47;;;22.50;37.30;;;;;;2290829;54;20996;-67
2022/03/14 13:01:46;;;;;;;1.92;0.50;;;22.70;36.60;;;;;;2296423;54;21031;-66
2022/03/14 13:04:18;;;;;;;2.45;0.60;;;22.80;37.20;;;;;;2333100;54;21017;-66
2022/03/14 13:07:02;;;;;;;3.00;0.47;;;23.00;36.80;;;;;;2297389;55;21047;-66
2022/03/14 13:09:51;;;;;;;4.18;1.40;;;23.20;36.00;;;;;;2295857;54;21480;-69
2022/03/14 13:15:42;;;;;;;1.35;0.40;;;23.40;35.60;;;;;;2296610;54;20932;-67
2022/03/14 13:18:22;;;;;;;2.42;0.50;;;23.50;36.00;;;;;;2298684;54;21897;-68
2022/03/14 13:20:48;;;;;;;2.80;0.62;;;23.50;35.20;;;;;;2302135;54;21008;-69
2022/03/14 13:23:27;;;;;;;3.37;0.50;;;23.50;35.40;;;;;;2294785;54;20952;-67
2022/03/14 13:25:56;;;;;;;2.08;0.30;;;23.60;34.90;;;;;;2300859;54;21496;-66
2022/03/14 13:28:27;;;;;;;3.50;0.40;;;23.50;35.30;;;;;;2308087;54;20963;-67
2022/03/14 13:30:54;;;;;;;1.33;0.40;;;23.60;35.00;;;;;;2296666;54;20943;-69
2022/03/14 13:33:26;;;;;;;2.20;0.50;;;23.60;35.40;;;;;;2330011;54;20967;-67
2022/03/14 13:36:01;;;;;;;2.05;0.40;;;23.70;35.00;;;;;;2300541;54;20929;-66
2022/03/14 13:38:57;;;;;;;1.92;0.50;;;23.80;35.40;;;;;;2266161;55;21003;-67
2022/03/14 13:42:28;;;;;;;2.70;0.52;;;23.80;34.50;;;;;;2297514;54;20979;-67
2022/03/14 13:45:02;;;;;;;1.62;0.40;;;23.80;34.20;;;;;;2296055;54;20951;-66
2022/03/14 13:47:30;;;;;;;2.05;0.43;;;23.80;35.00;;;;;;2296570;54;20931;-67
2022/03/14 13:50:04;;;;;;;1.42;0.40;;;23.80;34.30;;;;;;2287579;55;20952;-69
2022/03/14 13:52:31;;;;;;;1.77;0.40;;;23.70;33.90;;;;;;2296670;54;21024;-67
2022/03/14 13:54:57;;;;;;;3.65;0.75;;;23.70;34.10;;;;;;2293524;54;21448;-68
2022/03/14 13:57:24;;;;;;;1.48;0.40;;;23.60;33.80;;;;;;2332976;54;21326;-67
2022/03/14 13:59:51;;;;;;;2.12;0.57;;;23.50;33.50;;;;;;2296159;55;20976;-66
2022/03/14 14:05:54;;;;;;;3.50;0.70;;;23.50;33.40;;;;;;2302019;54;21481;-67
2022/03/14 14:08:34;;;;;;;1.62;0.55;;;23.20;33.30;;;;;;2295934;54;20964;-67
2022/03/14 14:11:04;;;;;;;2.28;0.50;;;23.10;32.70;;;;;;2324145;55;21020;-66
2022/03/14 14:17:08;;;;;;;2.72;0.40;;;23.00;32.90;;;;;;2297494;54;20944;-68
2022/03/14 14:19:35;;;;;;;0.95;0.30;;;22.80;33.50;;;;;;2267753;54;1928116;-67
2022/03/14 14:22:02;;;;;;;0.90;0.30;;;22.70;33.50;;;;;;2268143;55;21012;-69
2022/03/14 14:24:31;;;;;;;1.58;0.50;;;22.70;33.20;;;;;;2295887;54;20924;-67
2022/03/14 14:27:15;;;;;;;2.12;0.40;;;22.60;33.10;;;;;;2302170;54;21906;-67
2022/03/14 14:29:53;;;;;;;1.90;0.40;;;22.60;33.10;;;;;;2305432;54;21031;-66
2022/03/14 14:32:20;;;;;;;1.65;0.40;;;22.50;33.00;;;;;;2296519;54;20949;-67
2022/03/14 14:34:47;;;;;;;2.42;0.65;;;22.50;32.90;;;;;;2293070;54;20984;-68
2022/03/14 14:37:18;;;;;;;1.35;0.40;;;22.40;32.80;;;;;;2303351;54;21421;-66
2022/03/14 14:39:45;;;;;;;1.87;0.40;;;22.30;32.70;;;;;;2296072;54;21565;-66
2022/03/14 14:42:13;;;;;;;1.45;0.40;;;22.30;32.50;;;;;;2295385;55;21010;-66
2022/03/14 14:44:46;;;;;;;1.55;0.35;;;22.20;33.10;;;;;;2295952;54;20956;-66
2022/03/14 14:47:21;;;;;;;1.70;0.50;;;22.10;32.40;;;;;;2299200;54;20983;-68
2022/03/14 14:50:12;;;;;;;1.17;0.40;;;22.00;32.10;;;;;;2302971;54;20986;-67
2022/03/14 14:52:39;;;;;;;3.83;0.62;;;22.00;32.00;;;;;;2377748;54;21036;-68
2022/03/14 14:55:06;;;;;;;3.25;0.85;;;21.90;32.20;;;;;;2306813;54;20945;-67
2022/03/14 14:57:35;;;;;;;2.28;0.50;;;21.90;32.20;;;;;;2300879;54;21039;-67
2022/03/14 15:00:17;;;;;;;3.10;0.50;;;21.80;32.00;;;;;;2297217;54;21023;-66
2022/03/14 15:02:44;;;;;;;2.97;0.40;;;21.80;31.70;;;;;;2314023;54;20948;-66
2022/03/14 15:05:18;;;;;;;2.72;0.50;;;21.70;32.00;;;;;;2378525;54;20997;-66
2022/03/14 15:07:45;;;;;;;1.33;0.40;;;21.70;31.70;;;;;;2306094;54;21055;-68
2022/03/14 15:10:12;;;;;;;2.37;0.60;;;21.70;31.90;;;;;;2298309;54;21081;-67
2022/03/14 15:12:42;;;;;;;1.60;0.40;;;21.60;32.00;;;;;;2300134;54;20975;-69
2022/03/14 15:15:10;;;;;;;1.20;0.40;;;21.60;31.80;;;;;;2269724;55;21511;-67
2022/03/14 15:17:37;;;;;;;2.20;0.47;;;21.60;31.90;;;;;;2283645;54;21019;-69
2022/03/14 15:23:16;;;;;;;1.62;0.40;;;21.50;31.40;;;;;;2298246;54;20948;-66
2022/03/14 15:25:47;;;;;;;1.25;0.30;;;21.40;31.30;;;;;;2302177;54;21016;-68
2022/03/14 15:28:17;;;;;;;2.05;0.45;;;21.20;31.10;;;;;;2284100;55;21063;-68